createdAt,value
2018-09-19T00:00:04.520Z,1015.62
2018-09-19T00:00:45.273Z,1015.61
2018-09-19T00:01:26.076Z,1015.59
2018-09-19T00:02:06.836Z,1015.59
2018-09-19T00:02:47.551Z,1015.58
2018-09-19T00:03:28.292Z,1015.6
2018-09-19T00:04:09.069Z,1015.64
2018-09-19T00:04:49.883Z,1015.64
2018-09-19T00:05:30.638Z,1015.62
2018-09-19T00:06:11.372Z,1015.62
2018-09-19T00:06:52.208Z,1015.65
2018-09-19T00:07:32.990Z,1015.6
2018-09-19T00:08:13.758Z,1015.6
2018-09-19T00:08:54.544Z,1015.6
2018-09-19T00:09:35.316Z,1015.58
2018-09-19T00:10:16.073Z,1015.58
2018-09-19T00:10:56.875Z,1015.6
2018-09-19T00:11:37.696Z,1015.57
2018-09-19T00:12:18.538Z,1015.55
2018-09-19T00:12:59.250Z,1015.58
2018-09-19T00:13:40.007Z,1015.54
2018-09-19T00:14:20.850Z,1015.55
2018-09-19T00:15:01.613Z,1015.55
2018-09-19T00:15:42.378Z,1015.55
2018-09-19T00:16:23.107Z,1015.54
2018-09-19T00:17:03.913Z,1015.6
2018-09-19T00:17:44.740Z,1015.61
2018-09-19T00:18:25.569Z,1015.59
2018-09-19T00:19:06.402Z,1015.63
2018-09-19T00:19:47.105Z,1015.63
2018-09-19T00:20:27.897Z,1015.65
2018-09-19T00:21:08.643Z,1015.62
2018-09-19T00:21:49.465Z,1015.61
2018-09-19T00:22:30.204Z,1015.62
2018-09-19T00:23:10.937Z,1015.61
2018-09-19T00:23:51.716Z,1015.65
2018-09-19T00:24:32.523Z,1015.62
2018-09-19T00:25:13.344Z,1015.6
2018-09-19T00:25:54.062Z,1015.61
2018-09-19T00:26:34.839Z,1015.63
2018-09-19T00:27:15.667Z,1015.62
2018-09-19T00:27:56.380Z,1015.61
2018-09-19T00:28:37.144Z,1015.58
2018-09-19T00:29:17.870Z,1015.62
2018-09-19T00:29:58.575Z,1015.65
2018-09-19T00:30:39.433Z,1015.61
2018-09-19T00:31:20.202Z,1015.64
2018-09-19T00:32:00.931Z,1015.64
2018-09-19T00:32:41.739Z,1015.61
2018-09-19T00:33:22.508Z,1015.62
2018-09-19T00:34:03.318Z,1015.58
2018-09-19T00:34:44.054Z,1015.61
2018-09-19T00:35:24.822Z,1015.61
2018-09-19T00:36:05.550Z,1015.6
2018-09-19T00:36:46.430Z,1015.59
2018-09-19T00:37:27.235Z,1015.57
2018-09-19T00:38:08.049Z,1015.61
2018-09-19T00:38:48.864Z,1015.61
2018-09-19T00:39:29.561Z,1015.61
2018-09-19T00:40:10.382Z,1015.57
2018-09-19T00:40:51.186Z,1015.57
2018-09-19T00:41:31.962Z,1015.59
2018-09-19T00:42:12.752Z,1015.6
2018-09-19T00:42:53.428Z,1015.6
2018-09-19T00:43:34.268Z,1015.64
2018-09-19T00:44:15.091Z,1015.64
2018-09-19T00:44:55.862Z,1015.6
2018-09-19T00:45:36.578Z,1015.64
2018-09-19T00:46:17.301Z,1015.6
2018-09-19T00:46:58.060Z,1015.57
2018-09-19T00:47:38.868Z,1015.59
2018-09-19T00:48:19.642Z,1015.56
2018-09-19T00:49:00.399Z,1015.55
2018-09-19T00:49:41.183Z,1015.55
2018-09-19T00:50:21.978Z,1015.51
2018-09-19T00:51:02.815Z,1015.5
2018-09-19T00:51:43.616Z,1015.54
2018-09-19T00:52:24.347Z,1015.51
2018-09-19T00:53:05.057Z,1015.52
2018-09-19T00:53:45.782Z,1015.52
2018-09-19T00:54:26.600Z,1015.52
2018-09-19T00:55:07.375Z,1015.49
2018-09-19T00:55:48.144Z,1015.55
2018-09-19T00:56:28.934Z,1015.52
2018-09-19T00:57:09.633Z,1015.51
2018-09-19T00:57:50.487Z,1015.5
2018-09-19T00:58:31.267Z,1015.48
2018-09-19T00:59:12.048Z,1015.52
2018-09-19T00:59:52.780Z,1015.53
2018-09-19T01:00:33.542Z,1015.51
2018-09-19T01:01:14.330Z,1015.53
2018-09-19T01:01:55.102Z,1015.53
2018-09-19T01:02:35.797Z,1015.51
2018-09-19T01:03:16.645Z,1015.55
2018-09-19T01:03:57.464Z,1015.53
2018-09-19T01:04:38.187Z,1015.54
2018-09-19T01:05:18.925Z,1015.55
2018-09-19T01:05:59.721Z,1015.54
2018-09-19T01:06:40.558Z,1015.51
2018-09-19T01:07:21.320Z,1015.52
2018-09-19T01:08:02.057Z,1015.5
2018-09-19T01:08:42.793Z,1015.52
2018-09-19T01:09:23.609Z,1015.45
2018-09-19T01:10:04.371Z,1015.47
2018-09-19T01:10:45.202Z,1015.44
2018-09-19T01:11:26.003Z,1015.42
2018-09-19T01:12:06.756Z,1015.41
2018-09-19T01:12:47.569Z,1015.45
2018-09-19T01:13:28.299Z,1015.39
2018-09-19T01:14:09.139Z,1015.38
2018-09-19T01:14:49.921Z,1015.31
2018-09-19T01:15:30.661Z,1015.33
2018-09-19T01:16:11.457Z,1015.31
2018-09-19T01:16:52.276Z,1015.26
2018-09-19T01:17:33.093Z,1015.24
2018-09-19T01:18:13.851Z,1015.24
2018-09-19T01:18:54.576Z,1015.23
2018-09-19T01:19:35.415Z,1015.21
2018-09-19T01:20:16.172Z,1015.21
2018-09-19T01:20:56.872Z,1015.23
2018-09-19T01:21:37.607Z,1015.21
2018-09-19T01:22:18.377Z,1015.2
2018-09-19T01:22:59.195Z,1015.21
2018-09-19T01:23:39.941Z,1015.19
2018-09-19T01:24:20.697Z,1015.18
2018-09-19T01:25:01.550Z,1015.19
2018-09-19T01:25:42.336Z,1015.17
2018-09-19T01:26:23.170Z,1015.15
2018-09-19T01:27:03.910Z,1015.13
2018-09-19T01:27:44.619Z,1015.17
2018-09-19T01:28:25.349Z,1015.13
2018-09-19T01:29:06.100Z,1015.12
2018-09-19T01:29:46.892Z,1015.1
2018-09-19T01:30:27.755Z,1015.1
2018-09-19T01:31:08.509Z,1015.12
2018-09-19T01:31:49.225Z,1015.09
2018-09-19T01:32:30.007Z,1015.11
2018-09-19T01:33:10.757Z,1015.06
2018-09-19T01:33:51.481Z,1015.11
2018-09-19T01:34:32.185Z,1015.1
2018-09-19T01:35:12.913Z,1015.08
2018-09-19T01:35:53.745Z,1015.1
2018-09-19T01:36:34.511Z,1015.04
2018-09-19T01:37:15.263Z,1015.04
2018-09-19T01:37:56.079Z,1015.05
2018-09-19T01:38:36.851Z,1015.03
2018-09-19T01:39:17.675Z,1015
2018-09-19T01:39:58.444Z,1015.02
2018-09-19T01:40:39.213Z,1015.04
2018-09-19T01:41:20.055Z,1015.02
2018-09-19T01:42:00.824Z,1015
2018-09-19T01:42:41.589Z,1015
2018-09-19T01:43:22.331Z,1015.02
2018-09-19T01:44:03.101Z,1015.02
2018-09-19T01:44:43.893Z,1015.02
2018-09-19T01:45:24.729Z,1015.02
2018-09-19T01:46:05.493Z,1015.01
2018-09-19T01:46:46.236Z,1015.02
2018-09-19T01:47:27.020Z,1015.03
2018-09-19T01:48:07.758Z,1015.08
2018-09-19T01:48:48.605Z,1015.05
2018-09-19T01:49:29.426Z,1015.07
2018-09-19T01:50:10.171Z,1015.05
2018-09-19T01:50:50.961Z,1015.1
2018-09-19T01:51:31.755Z,1015.06
2018-09-19T01:52:12.551Z,1015.08
2018-09-19T01:52:53.394Z,1015.1
2018-09-19T01:53:34.123Z,1015.1
2018-09-19T01:54:14.882Z,1015.12
2018-09-19T01:54:55.641Z,1015.1
2018-09-19T01:55:36.461Z,1015.1
2018-09-19T01:56:17.274Z,1015.06
2018-09-19T01:56:58.063Z,1015.08
2018-09-19T01:57:38.836Z,1015.08
2018-09-19T01:58:19.646Z,1015.07
2018-09-19T01:59:00.395Z,1015.11
2018-09-19T01:59:41.102Z,1015.13
2018-09-19T02:00:21.800Z,1015.12
2018-09-19T02:01:02.533Z,1015.11
2018-09-19T02:01:43.308Z,1015.13
2018-09-19T02:02:24.128Z,1015.11
2018-09-19T02:03:04.908Z,1015.11
2018-09-19T02:03:45.662Z,1015.08
2018-09-19T02:04:26.395Z,1015.11
2018-09-19T02:05:07.150Z,1015.07
2018-09-19T02:05:47.896Z,1015.09
2018-09-19T02:06:28.695Z,1015.06
2018-09-19T02:07:09.440Z,1015.09
2018-09-19T02:07:50.194Z,1015.06
2018-09-19T02:08:31.046Z,1015.05
2018-09-19T02:09:11.814Z,1015.05
2018-09-19T02:09:52.648Z,1015.04
2018-09-19T02:10:33.376Z,1015.03
2018-09-19T02:11:14.117Z,1015.01
2018-09-19T02:11:54.950Z,1015.04
2018-09-19T02:12:35.651Z,1015.04
2018-09-19T02:13:16.390Z,1014.99
2018-09-19T02:13:57.114Z,1015.02
2018-09-19T02:14:37.886Z,1015
2018-09-19T02:15:18.734Z,1015
2018-09-19T02:15:59.485Z,1015
2018-09-19T02:16:40.238Z,1015.02
2018-09-19T02:17:21.134Z,1014.98
2018-09-19T02:18:01.916Z,1014.97
2018-09-19T02:18:42.730Z,1014.95
2018-09-19T02:19:23.455Z,1014.96
2018-09-19T02:20:04.173Z,1014.97
2018-09-19T02:20:44.958Z,1014.97
2018-09-19T02:21:25.769Z,1014.95
2018-09-19T02:22:06.531Z,1014.96
2018-09-19T02:22:47.404Z,1014.99
2018-09-19T02:23:28.158Z,1014.96
2018-09-19T02:24:08.901Z,1014.96
2018-09-19T02:24:49.747Z,1014.96
2018-09-19T02:25:30.564Z,1014.98
2018-09-19T02:26:11.257Z,1014.99
2018-09-19T02:26:52.029Z,1014.97
2018-09-19T02:27:32.786Z,1014.96
2018-09-19T02:28:13.659Z,1014.97
2018-09-19T02:28:54.475Z,1014.96
2018-09-19T02:29:35.325Z,1014.93
2018-09-19T02:30:16.142Z,1014.95
2018-09-19T02:30:56.836Z,1014.97
2018-09-19T02:31:37.571Z,1014.98
2018-09-19T02:32:18.330Z,1014.95
2018-09-19T02:32:59.124Z,1014.97
2018-09-19T02:33:39.838Z,1014.97
2018-09-19T02:34:20.610Z,1015.01
2018-09-19T02:35:01.411Z,1014.96
2018-09-19T02:35:42.238Z,1014.95
2018-09-19T02:36:22.989Z,1014.95
2018-09-19T02:37:03.792Z,1014.97
2018-09-19T02:37:44.514Z,1014.96
2018-09-19T02:38:25.325Z,1014.93
2018-09-19T02:39:06.203Z,1014.91
2018-09-19T02:39:46.987Z,1014.95
2018-09-19T02:40:27.817Z,1014.91
2018-09-19T02:41:08.533Z,1014.92
2018-09-19T02:41:49.273Z,1014.93
2018-09-19T02:42:30.076Z,1014.94
2018-09-19T02:43:10.821Z,1014.89
2018-09-19T02:43:51.594Z,1014.92
2018-09-19T02:44:32.354Z,1014.92
2018-09-19T02:45:13.106Z,1014.93
2018-09-19T02:45:53.923Z,1014.88
2018-09-19T02:46:34.695Z,1014.89
2018-09-19T02:47:15.405Z,1014.87
2018-09-19T02:47:56.263Z,1014.88
2018-09-19T02:48:37.071Z,1014.87
2018-09-19T02:49:17.897Z,1014.87
2018-09-19T02:49:58.643Z,1014.88
2018-09-19T02:50:39.472Z,1014.88
2018-09-19T02:51:20.310Z,1014.88
2018-09-19T02:52:01.115Z,1014.91
2018-09-19T02:52:41.853Z,1014.93
2018-09-19T02:53:22.582Z,1014.92
2018-09-19T02:54:03.315Z,1014.94
2018-09-19T02:54:44.179Z,1014.92
2018-09-19T02:55:24.995Z,1014.95
2018-09-19T02:56:05.747Z,1014.95
2018-09-19T02:56:46.462Z,1014.98
2018-09-19T02:57:27.176Z,1014.98
2018-09-19T02:58:07.915Z,1014.99
2018-09-19T02:58:48.737Z,1014.98
2018-09-19T02:59:29.452Z,1014.99
2018-09-19T03:00:10.193Z,1015
2018-09-19T03:00:51.057Z,1015
2018-09-19T03:01:31.846Z,1015
2018-09-19T03:02:12.694Z,1014.99
2018-09-19T03:02:53.433Z,1015.01
2018-09-19T03:03:34.147Z,1015.01
2018-09-19T03:04:14.901Z,1015.03
2018-09-19T03:04:55.677Z,1015.02
2018-09-19T03:05:36.484Z,1015.04
2018-09-19T03:06:17.309Z,1015.07
2018-09-19T03:06:58.056Z,1015.06
2018-09-19T03:07:38.793Z,1015.07
2018-09-19T03:08:19.629Z,1015.09
2018-09-19T03:09:00.368Z,1015.12
2018-09-19T03:09:41.122Z,1015.08
2018-09-19T03:10:21.829Z,1015.11
2018-09-19T03:11:02.587Z,1015.15
2018-09-19T03:11:43.411Z,1015.12
2018-09-19T03:12:24.195Z,1015.1
2018-09-19T03:13:05.065Z,1015.13
2018-09-19T03:13:45.804Z,1015.1
2018-09-19T03:14:26.562Z,1015.12
2018-09-19T03:15:07.350Z,1015.11
2018-09-19T03:15:48.166Z,1015.1
2018-09-19T03:16:28.975Z,1015.11
2018-09-19T03:17:09.795Z,1015.13
2018-09-19T03:17:50.812Z,1015.13
2018-09-19T03:18:31.377Z,1015.12
2018-09-19T03:19:12.247Z,1015.15
2018-09-19T03:19:53.028Z,1015.18
2018-09-19T03:20:33.762Z,1015.13
2018-09-19T03:21:14.537Z,1015.12
2018-09-19T03:21:55.318Z,1015.16
2018-09-19T03:22:36.103Z,1015.19
2018-09-19T03:23:16.815Z,1015.18
2018-09-19T03:23:57.624Z,1015.19
2018-09-19T03:24:38.390Z,1015.21
2018-09-19T03:25:19.160Z,1015.17
2018-09-19T03:25:59.897Z,1015.2
2018-09-19T03:26:40.723Z,1015.16
2018-09-19T03:27:21.531Z,1015.18
2018-09-19T03:28:02.374Z,1015.17
2018-09-19T03:28:43.111Z,1015.23
2018-09-19T03:29:23.834Z,1015.18
2018-09-19T03:30:04.605Z,1015.2
2018-09-19T03:30:45.375Z,1015.2
2018-09-19T03:31:26.229Z,1015.21
2018-09-19T03:32:07.045Z,1015.23
2018-09-19T03:32:47.890Z,1015.19
2018-09-19T03:33:28.650Z,1015.21
2018-09-19T03:34:09.452Z,1015.22
2018-09-19T03:34:50.277Z,1015.18
2018-09-19T03:35:31.034Z,1015.24
2018-09-19T03:36:11.703Z,1015.22
2018-09-19T03:36:52.421Z,1015.22
2018-09-19T03:37:33.226Z,1015.22
2018-09-19T03:38:14.048Z,1015.18
2018-09-19T03:38:54.817Z,1015.19
2018-09-19T03:39:35.608Z,1015.19
2018-09-19T03:40:16.419Z,1015.21
2018-09-19T03:40:57.204Z,1015.22
2018-09-19T03:41:38.030Z,1015.19
2018-09-19T03:42:18.771Z,1015.22
2018-09-19T03:42:59.596Z,1015.24
2018-09-19T03:43:40.449Z,1015.19
2018-09-19T03:44:21.262Z,1015.22
2018-09-19T03:45:02.046Z,1015.22
2018-09-19T03:45:42.755Z,1015.24
2018-09-19T03:46:23.591Z,1015.24
2018-09-19T03:47:04.426Z,1015.25
2018-09-19T03:47:45.265Z,1015.27
2018-09-19T03:48:26.054Z,1015.29
2018-09-19T03:49:06.786Z,1015.27
2018-09-19T03:49:47.551Z,1015.32
2018-09-19T03:50:28.325Z,1015.32
2018-09-19T03:51:09.164Z,1015.31
2018-09-19T03:51:49.917Z,1015.32
2018-09-19T03:52:30.661Z,1015.32
2018-09-19T03:53:11.481Z,1015.31
2018-09-19T03:53:52.312Z,1015.34
2018-09-19T03:54:33.173Z,1015.31
2018-09-19T03:55:13.894Z,1015.29
2018-09-19T03:55:54.687Z,1015.31
2018-09-19T03:56:35.487Z,1015.34
2018-09-19T03:57:16.189Z,1015.31
2018-09-19T03:57:57.009Z,1015.34
2018-09-19T03:58:37.773Z,1015.32
2018-09-19T03:59:18.533Z,1015.32
2018-09-19T03:59:59.424Z,1015.34
2018-09-19T04:00:40.109Z,1015.33
2018-09-19T04:01:20.906Z,1015.35
2018-09-19T04:02:01.765Z,1015.32
2018-09-19T04:02:42.631Z,1015.35
2018-09-19T04:03:23.412Z,1015.36
2018-09-19T04:04:04.168Z,1015.39
2018-09-19T04:04:44.879Z,1015.4
2018-09-19T04:05:25.639Z,1015.41
2018-09-19T04:06:06.438Z,1015.42
2018-09-19T04:06:47.288Z,1015.41
2018-09-19T04:07:28.096Z,1015.39
2018-09-19T04:08:08.819Z,1015.39
2018-09-19T04:08:49.540Z,1015.38
2018-09-19T04:09:30.341Z,1015.36
2018-09-19T04:10:11.177Z,1015.36
2018-09-19T04:10:51.876Z,1015.37
2018-09-19T04:11:32.572Z,1015.38
2018-09-19T04:12:13.358Z,1015.34
2018-09-19T04:12:54.180Z,1015.35
2018-09-19T04:13:34.982Z,1015.31
2018-09-19T04:14:15.815Z,1015.32
2018-09-19T04:14:56.534Z,1015.36
2018-09-19T04:15:37.321Z,1015.3
2018-09-19T04:16:18.096Z,1015.32
2018-09-19T04:16:58.870Z,1015.36
2018-09-19T04:17:39.707Z,1015.39
2018-09-19T04:18:20.407Z,1015.35
2018-09-19T04:19:01.245Z,1015.39
2018-09-19T04:19:42.037Z,1015.37
2018-09-19T04:20:22.909Z,1015.37
2018-09-19T04:21:03.642Z,1015.38
2018-09-19T04:21:44.381Z,1015.38
2018-09-19T04:22:25.110Z,1015.4
2018-09-19T04:23:06.011Z,1015.37
2018-09-19T04:23:46.764Z,1015.39
2018-09-19T04:24:27.516Z,1015.39
2018-09-19T04:25:08.314Z,1015.41
2018-09-19T04:25:49.026Z,1015.41
2018-09-19T04:26:29.780Z,1015.41
2018-09-19T04:27:10.593Z,1015.4
2018-09-19T04:27:51.384Z,1015.42
2018-09-19T04:28:32.291Z,1015.4
2018-09-19T04:29:12.977Z,1015.4
2018-09-19T04:29:53.807Z,1015.39
2018-09-19T04:30:34.634Z,1015.39
2018-09-19T04:31:15.383Z,1015.4
2018-09-19T04:31:56.183Z,1015.41
2018-09-19T04:32:37.022Z,1015.43
2018-09-19T04:33:17.790Z,1015.43
2018-09-19T04:33:58.575Z,1015.4
2018-09-19T04:34:39.277Z,1015.45
2018-09-19T04:35:20.155Z,1015.46
2018-09-19T04:36:00.931Z,1015.44
2018-09-19T04:36:41.671Z,1015.45
2018-09-19T04:37:22.474Z,1015.5
2018-09-19T04:38:03.225Z,1015.48
2018-09-19T04:38:44.083Z,1015.46
2018-09-19T04:39:24.916Z,1015.47
2018-09-19T04:40:05.782Z,1015.49
2018-09-19T04:40:46.559Z,1015.47
2018-09-19T04:41:27.313Z,1015.49
2018-09-19T04:42:08.098Z,1015.49
2018-09-19T04:42:48.882Z,1015.5
2018-09-19T04:43:29.687Z,1015.49
2018-09-19T04:44:10.396Z,1015.49
2018-09-19T04:44:51.254Z,1015.54
2018-09-19T04:45:32.082Z,1015.56
2018-09-19T04:46:12.809Z,1015.56
2018-09-19T04:46:53.615Z,1015.56
2018-09-19T04:47:34.338Z,1015.55
2018-09-19T04:48:15.100Z,1015.58
2018-09-19T04:48:55.829Z,1015.61
2018-09-19T04:49:36.666Z,1015.57
2018-09-19T04:50:17.457Z,1015.58
2018-09-19T04:50:58.299Z,1015.56
2018-09-19T04:51:39.111Z,1015.59
2018-09-19T04:52:19.783Z,1015.56
2018-09-19T04:53:00.815Z,1015.54
2018-09-19T04:53:41.517Z,1015.55
2018-09-19T04:54:22.266Z,1015.54
2018-09-19T04:55:03.089Z,1015.54
2018-09-19T04:55:43.901Z,1015.55
2018-09-19T04:56:24.771Z,1015.54
2018-09-19T04:57:05.557Z,1015.55
2018-09-19T04:57:46.377Z,1015.58
2018-09-19T04:58:27.115Z,1015.57
2018-09-19T04:59:07.855Z,1015.55
2018-09-19T04:59:48.633Z,1015.57
2018-09-19T05:00:29.446Z,1015.55
2018-09-19T05:01:10.178Z,1015.52
2018-09-19T05:01:50.858Z,1015.5
2018-09-19T05:02:31.657Z,1015.55
2018-09-19T05:03:12.452Z,1015.56
2018-09-19T05:03:53.270Z,1015.52
2018-09-19T05:04:33.999Z,1015.51
2018-09-19T05:05:14.744Z,1015.5
2018-09-19T05:05:55.610Z,1015.53
2018-09-19T05:06:36.402Z,1015.48
2018-09-19T05:07:17.195Z,1015.53
2018-09-19T05:07:57.914Z,1015.52
2018-09-19T05:08:38.701Z,1015.53
2018-09-19T05:09:19.538Z,1015.53
2018-09-19T05:10:00.234Z,1015.55
2018-09-19T05:10:41.011Z,1015.6
2018-09-19T05:11:21.940Z,1015.58
2018-09-19T05:12:02.691Z,1015.61
2018-09-19T05:12:43.472Z,1015.58
2018-09-19T05:13:24.210Z,1015.59
2018-09-19T05:14:04.952Z,1015.57
2018-09-19T05:14:45.687Z,1015.59
2018-09-19T05:15:26.541Z,1015.59
2018-09-19T05:16:07.346Z,1015.56
2018-09-19T05:16:48.203Z,1015.58
2018-09-19T05:17:28.954Z,1015.56
2018-09-19T05:18:09.669Z,1015.58
2018-09-19T05:18:50.495Z,1015.58
2018-09-19T05:19:31.293Z,1015.59
2018-09-19T05:20:12.081Z,1015.59
2018-09-19T05:20:52.809Z,1015.57
2018-09-19T05:21:33.560Z,1015.59
2018-09-19T05:22:14.418Z,1015.59
2018-09-19T05:22:55.207Z,1015.56
2018-09-19T05:23:35.994Z,1015.59
2018-09-19T05:24:16.728Z,1015.6
2018-09-19T05:24:57.475Z,1015.59
2018-09-19T05:25:38.184Z,1015.59
2018-09-19T05:26:19.015Z,1015.63
2018-09-19T05:26:59.728Z,1015.61
2018-09-19T05:27:40.487Z,1015.63
2018-09-19T05:28:21.384Z,1015.61
2018-09-19T05:29:02.175Z,1015.63
2018-09-19T05:29:43.039Z,1015.63
2018-09-19T05:30:23.774Z,1015.66
2018-09-19T05:31:04.569Z,1015.65
2018-09-19T05:31:45.410Z,1015.64
2018-09-19T05:32:26.123Z,1015.62
2018-09-19T05:33:06.928Z,1015.64
2018-09-19T05:33:47.727Z,1015.62
2018-09-19T05:34:28.498Z,1015.64
2018-09-19T05:35:09.209Z,1015.62
2018-09-19T05:35:50.008Z,1015.62
2018-09-19T05:36:30.833Z,1015.6
2018-09-19T05:37:12.455Z,1015.62
2018-09-19T05:37:53.164Z,1015.64
2018-09-19T05:38:33.922Z,1015.61
2018-09-19T05:39:14.725Z,1015.64
2018-09-19T05:39:55.565Z,1015.61
2018-09-19T05:40:36.305Z,1015.66
2018-09-19T05:41:17.066Z,1015.64
2018-09-19T05:41:57.898Z,1015.66
2018-09-19T05:42:38.719Z,1015.66
2018-09-19T05:43:19.473Z,1015.64
2018-09-19T05:44:00.196Z,1015.71
2018-09-19T05:44:41.109Z,1015.71
2018-09-19T05:45:21.913Z,1015.68
2018-09-19T05:46:02.665Z,1015.72
2018-09-19T05:46:43.409Z,1015.72
2018-09-19T05:47:24.121Z,1015.71
2018-09-19T05:48:04.967Z,1015.73
2018-09-19T05:48:45.763Z,1015.72
2018-09-19T05:49:26.597Z,1015.75
2018-09-19T05:50:07.429Z,1015.72
2018-09-19T05:50:48.159Z,1015.74
2018-09-19T05:51:29.009Z,1015.75
2018-09-19T05:52:09.785Z,1015.8
2018-09-19T05:52:50.622Z,1015.79
2018-09-19T05:53:31.320Z,1015.78
2018-09-19T05:54:12.049Z,1015.79
2018-09-19T05:54:52.930Z,1015.82
2018-09-19T05:55:33.707Z,1015.79
2018-09-19T05:56:14.505Z,1015.85
2018-09-19T05:56:55.224Z,1015.83
2018-09-19T05:57:36.076Z,1015.84
2018-09-19T05:58:16.880Z,1015.87
2018-09-19T05:58:57.605Z,1015.89
2018-09-19T05:59:38.321Z,1015.9
2018-09-19T06:00:19.077Z,1015.89
2018-09-19T06:00:59.877Z,1015.91
2018-09-19T06:01:40.655Z,1015.92
2018-09-19T06:02:21.406Z,1015.93
2018-09-19T06:03:02.260Z,1015.93
2018-09-19T06:03:43.086Z,1015.94
2018-09-19T06:04:23.921Z,1015.94
2018-09-19T06:05:04.758Z,1015.95
2018-09-19T06:05:45.449Z,1015.95
2018-09-19T06:06:26.184Z,1015.95
2018-09-19T06:07:06.909Z,1015.96
2018-09-19T06:07:47.726Z,1015.95
2018-09-19T06:08:28.587Z,1015.99
2018-09-19T06:09:09.361Z,1016
2018-09-19T06:09:50.076Z,1016.01
2018-09-19T06:10:30.903Z,1016.02
2018-09-19T06:11:11.761Z,1016.03
2018-09-19T06:11:52.521Z,1016.05
2018-09-19T06:12:33.268Z,1016.1
2018-09-19T06:13:14.053Z,1016.09
2018-09-19T06:13:54.906Z,1016.11
2018-09-19T06:14:35.679Z,1016.08
2018-09-19T06:15:16.589Z,1016.09
2018-09-19T06:15:57.718Z,1016.1
2018-09-19T06:16:38.350Z,1016.16
2018-09-19T06:17:19.219Z,1016.15
2018-09-19T06:18:00.076Z,1016.15
2018-09-19T06:18:40.963Z,1016.16
2018-09-19T06:19:21.778Z,1016.16
2018-09-19T06:20:02.661Z,1016.14
2018-09-19T06:20:43.487Z,1016.17
2018-09-19T06:21:24.319Z,1016.21
2018-09-19T06:22:05.057Z,1016.18
2018-09-19T06:22:45.941Z,1016.2
2018-09-19T06:23:27.066Z,1016.21
2018-09-19T06:24:07.620Z,1016.21
2018-09-19T06:24:48.415Z,1016.21
2018-09-19T06:25:29.205Z,1016.23
2018-09-19T06:26:09.927Z,1016.19
2018-09-19T06:26:50.826Z,1016.23
2018-09-19T06:27:31.543Z,1016.22
2018-09-19T06:28:12.309Z,1016.26
2018-09-19T06:28:53.050Z,1016.27
2018-09-19T06:29:33.872Z,1016.26
2018-09-19T06:30:14.702Z,1016.26
2018-09-19T06:30:55.445Z,1016.3
2018-09-19T06:31:36.292Z,1016.26
2018-09-19T06:32:16.965Z,1016.26
2018-09-19T06:32:57.759Z,1016.28
2018-09-19T06:33:38.537Z,1016.27
2018-09-19T06:34:19.323Z,1016.27
2018-09-19T06:35:00.141Z,1016.23
2018-09-19T06:35:40.894Z,1016.27
2018-09-19T06:36:21.685Z,1016.24
2018-09-19T06:37:02.575Z,1016.33
2018-09-19T06:37:43.354Z,1016.4
2018-09-19T06:38:24.120Z,1016.51
2018-09-19T06:39:04.869Z,1016.61
2018-09-19T06:39:45.638Z,1016.65
2018-09-19T06:40:26.511Z,1016.6
2018-09-19T06:41:07.258Z,1016.6
2018-09-19T06:41:48.055Z,1016.57
2018-09-19T06:42:28.868Z,1016.58
2018-09-19T06:43:09.583Z,1016.64
2018-09-19T06:43:50.303Z,1016.65
2018-09-19T06:44:31.077Z,1016.68
2018-09-19T06:45:11.891Z,1016.65
2018-09-19T06:45:52.696Z,1016.6
2018-09-19T06:46:33.496Z,1016.51
2018-09-19T06:47:14.265Z,1016.47
2018-09-19T06:47:55.085Z,1016.43
2018-09-19T06:48:35.915Z,1016.43
2018-09-19T06:49:16.668Z,1016.43
2018-09-19T06:49:57.488Z,1016.47
2018-09-19T06:50:38.275Z,1016.46
2018-09-19T06:51:19.061Z,1016.44
2018-09-19T06:51:59.878Z,1016.46
2018-09-19T06:52:40.549Z,1016.46
2018-09-19T06:53:21.378Z,1016.47
2018-09-19T06:54:02.183Z,1016.51
2018-09-19T06:54:42.972Z,1016.46
2018-09-19T06:55:23.804Z,1016.47
2018-09-19T06:56:04.609Z,1016.43
2018-09-19T06:56:45.433Z,1016.49
2018-09-19T06:57:26.216Z,1016.46
2018-09-19T06:58:06.968Z,1016.47
2018-09-19T06:58:47.712Z,1016.47
2018-09-19T06:59:28.520Z,1016.5
2018-09-19T07:00:09.309Z,1016.46
2018-09-19T07:00:50.165Z,1016.5
2018-09-19T07:01:30.970Z,1016.5
2018-09-19T07:02:11.699Z,1016.51
2018-09-19T07:02:52.505Z,1016.48
2018-09-19T07:03:33.286Z,1016.5
2018-09-19T07:04:13.979Z,1016.5
2018-09-19T07:04:54.743Z,1016.49
2018-09-19T07:05:35.482Z,1016.53
2018-09-19T07:06:16.313Z,1016.54
2018-09-19T07:06:57.138Z,1016.54
2018-09-19T07:07:37.931Z,1016.57
2018-09-19T07:08:18.745Z,1016.58
2018-09-19T07:08:59.458Z,1016.59
2018-09-19T07:09:40.195Z,1016.6
2018-09-19T07:10:20.978Z,1016.61
2018-09-19T07:11:01.769Z,1016.63
2018-09-19T07:11:42.587Z,1016.62
2018-09-19T07:12:23.317Z,1016.63
2018-09-19T07:13:04.105Z,1016.62
2018-09-19T07:13:44.937Z,1016.66
2018-09-19T07:14:25.776Z,1016.68
2018-09-19T07:15:06.461Z,1016.68
2018-09-19T07:15:47.179Z,1016.66
2018-09-19T07:16:27.989Z,1016.66
2018-09-19T07:17:08.729Z,1016.64
2018-09-19T07:17:49.579Z,1016.66
2018-09-19T07:18:30.404Z,1016.65
2018-09-19T07:19:11.218Z,1016.65
2018-09-19T07:19:51.933Z,1016.69
2018-09-19T07:20:32.730Z,1016.69
2018-09-19T07:21:13.522Z,1016.69
2018-09-19T07:21:54.253Z,1016.69
2018-09-19T07:22:35.026Z,1016.66
2018-09-19T07:23:15.761Z,1016.7
2018-09-19T07:23:56.642Z,1016.66
2018-09-19T07:24:37.361Z,1016.67
2018-09-19T07:25:18.172Z,1016.66
2018-09-19T07:25:58.919Z,1016.7
2018-09-19T07:26:39.799Z,1016.65
2018-09-19T07:27:20.653Z,1016.68
2018-09-19T07:28:01.449Z,1016.69
2018-09-19T07:28:42.195Z,1016.74
2018-09-19T07:29:22.963Z,1016.76
2018-09-19T07:30:03.804Z,1016.75
2018-09-19T07:30:44.507Z,1016.79
2018-09-19T07:31:25.228Z,1016.8
2018-09-19T07:32:05.962Z,1016.82
2018-09-19T07:32:46.746Z,1016.87
2018-09-19T07:33:27.576Z,1016.87
2018-09-19T07:34:08.379Z,1016.87
2018-09-19T07:34:49.122Z,1016.89
2018-09-19T07:35:29.925Z,1016.91
2018-09-19T07:36:10.631Z,1016.92
2018-09-19T07:36:51.390Z,1016.91
2018-09-19T07:37:32.200Z,1016.95
2018-09-19T07:38:12.965Z,1016.98
2018-09-19T07:38:53.728Z,1016.98
2018-09-19T07:39:34.555Z,1016.97
2018-09-19T07:40:15.360Z,1017
2018-09-19T07:40:56.138Z,1017.03
2018-09-19T07:41:36.845Z,1017
2018-09-19T07:42:17.587Z,1017.06
2018-09-19T07:42:58.388Z,1017.09
2018-09-19T07:43:39.171Z,1017.09
2018-09-19T07:44:19.995Z,1017.13
2018-09-19T07:45:00.824Z,1017.19
2018-09-19T07:45:41.543Z,1017.17
2018-09-19T07:46:22.304Z,1017.18
2018-09-19T07:47:03.134Z,1017.17
2018-09-19T07:47:43.887Z,1017.18
2018-09-19T07:48:24.629Z,1017.18
2018-09-19T07:49:05.381Z,1017.18
2018-09-19T07:49:46.149Z,1017.17
2018-09-19T07:50:27.020Z,1017.17
2018-09-19T07:51:07.826Z,1017.16
2018-09-19T07:51:48.640Z,1017.16
2018-09-19T07:52:29.421Z,1017.17
2018-09-19T07:53:10.152Z,1017.18
2018-09-19T07:53:50.965Z,1017.19
2018-09-19T07:54:31.777Z,1017.17
2018-09-19T07:55:12.570Z,1017.22
2018-09-19T07:55:53.282Z,1017.22
2018-09-19T07:56:34.086Z,1017.27
2018-09-19T07:57:14.921Z,1017.26
2018-09-19T07:57:55.741Z,1017.29
2018-09-19T07:58:36.513Z,1017.31
2018-09-19T07:59:17.282Z,1017.3
2018-09-19T07:59:58.079Z,1017.35
2018-09-19T08:00:38.982Z,1017.35
2018-09-19T08:01:19.663Z,1017.37
2018-09-19T08:02:00.338Z,1017.38
2018-09-19T08:02:41.108Z,1017.44
2018-09-19T08:03:21.938Z,1017.42
2018-09-19T08:04:02.665Z,1017.42
2018-09-19T08:04:43.386Z,1017.45
2018-09-19T08:05:24.228Z,1017.43
2018-09-19T08:06:05.084Z,1017.46
2018-09-19T08:06:45.957Z,1017.46
2018-09-19T08:07:26.709Z,1017.44
2018-09-19T08:08:07.408Z,1017.46
2018-09-19T08:08:48.149Z,1017.48
2018-09-19T08:09:28.902Z,1017.46
2018-09-19T08:10:09.776Z,1017.51
2018-09-19T08:10:50.501Z,1017.48
2018-09-19T08:11:31.276Z,1017.51
2018-09-19T08:12:12.028Z,1017.56
2018-09-19T08:12:52.839Z,1017.55
2018-09-19T08:13:33.750Z,1017.57
2018-09-19T08:14:14.565Z,1017.58
2018-09-19T08:14:55.303Z,1017.57